Time;durP1;ratioP1;P1;durP2;ratioP2;P2;SDS_P1;SDS_P2;PMS_P1;PMS_P2;Temp;Humidity;BMP_temperature;BMP_pressure;BME280_temperature;BME280_humidity;BME280_pressure;Samples;Min_cycle;Max_cycle;Signal;HPM_P1;HPM_P2
2021/12/01 00:01:29;;;;;;;5.50;2.90;;;;;;;;;;101079;1329;61587;-26
2021/12/01 00:03:56;;;;;;;5.50;2.90;;;;;;;;;;101176;1330;61646;-28
2021/12/01 00:06:23;;;;;;;6.20;2.90;;;;;;;;;;101178;1339;61611;-28
2021/12/01 00:08:50;;;;;;;6.80;2.70;;;;;;;;;;101496;1325;61487;-30
2021/12/01 00:14:02;;;;;;;5.70;2.50;;;;;;;;;;98396;1356;596155;-29
2021/12/01 00:16:29;;;;;;;6.50;2.80;;;;;;;;;;100418;1342;61702;-27
2021/12/01 00:18:55;;;;;;;9.30;3.00;;;;;;;;;;100305;1335;67100;-28
2021/12/01 00:21:22;;;;;;;6.90;3.10;;;;;;;;;;100426;1344;61526;-26
2021/12/01 00:23:49;;;;;;;5.30;3.00;;;;;;;;;;100589;1343;61631;-29
2021/12/01 00:26:16;;;;;;;5.30;2.50;;;;;;;;;;100691;1341;61650;-29
2021/12/01 00:29:15;;;;;;;5.50;2.60;;;;;;;;;;98660;1359;596437;-29
2021/12/01 00:31:44;;;;;;;6.50;2.80;;;;;;;;;;101151;1330;61559;-29
2021/12/01 00:34:11;;;;;;;4.50;2.40;;;;;;;;;;101163;1343;61514;-28
2021/12/01 00:36:41;;;;;;;5.50;2.60;;;;;;;;;;101159;1329;61473;-26
2021/12/01 00:39:11;;;;;;;4.60;2.20;;;;;;;;;;101134;1337;61663;-27
2021/12/01 00:41:38;;;;;;;6.10;2.70;;;;;;;;;;101134;1339;61616;-27
2021/12/01 00:44:29;;;;;;;5.50;2.70;;;;;;;;;;99414;1349;596769;-27
2021/12/01 00:49:34;;;;;;;4.60;2.30;;;;;;;;;;101214;1329;61514;-28
2021/12/01 00:52:01;;;;;;;5.30;2.50;;;;;;;;;;101199;1330;61630;-26
2021/12/01 00:54:31;;;;;;;5.00;2.50;;;;;;;;;;101204;1330;61721;-37
2021/12/01 00:59:40;;;;;;;4.80;2.60;;;;;;;;;;99089;1356;595927;-27
2021/12/01 01:02:07;;;;;;;5.20;2.70;;;;;;;;;;101039;1332;62362;-26
2021/12/01 01:04:37;;;;;;;5.50;2.40;;;;;;;;;;101062;1346;61511;-32
2021/12/01 01:07:04;;;;;;;6.30;2.30;;;;;;;;;;101060;1330;61767;-31
2021/12/01 01:09:32;;;;;;;5.30;2.20;;;;;;;;;;101035;1332;61708;-28
2021/12/01 01:18:08;;;;;;;5.00;2.30;;;;;;;;;;101177;1343;61605;-25
2021/12/01 01:20:35;;;;;;;5.20;2.40;;;;;;;;;;101068;1345;61591;-27
2021/12/01 01:23:05;;;;;;;4.30;2.00;;;;;;;;;;101151;1343;61539;-29
2021/12/01 01:25:32;;;;;;;4.80;2.30;;;;;;;;;;101173;1330;61511;-28
2021/12/01 01:30:22;;;;;;;4.30;2.20;;;;;;;;;;98577;1354;596007;-29
2021/12/01 01:32:50;;;;;;;5.00;1.90;;;;;;;;;;101097;1332;62216;-28
2021/12/01 01:35:18;;;;;;;4.50;2.20;;;;;;;;;;101079;1332;61656;-29
2021/12/01 01:37:45;;;;;;;4.60;2.40;;;;;;;;;;101068;1332;61551;-28
2021/12/01 01:40:16;;;;;;;5.10;2.40;;;;;;;;;;101055;1331;61544;-26
2021/12/01 01:42:49;;;;;;;5.30;2.20;;;;;;;;;;101066;1332;61589;-28
2021/12/01 01:45:40;;;;;;;4.40;2.00;;;;;;;;;;98648;1355;597120;-30
2021/12/01 01:48:13;;;;;;;5.30;2.40;;;;;;;;;;101152;1330;61629;-27
2021/12/01 01:50:43;;;;;;;4.30;2.20;;;;;;;;;;101169;1329;62356;-27
2021/12/01 01:53:16;;;;;;;4.60;2.20;;;;;;;;;;101165;1329;61717;-29
2021/12/01 01:55:45;;;;;;;4.40;2.10;;;;;;;;;;101156;1330;61554;-29
2021/12/01 02:01:06;;;;;;;4.50;2.20;;;;;;;;;;98603;1356;596609;-38
2021/12/01 02:03:38;;;;;;;4.60;2.20;;;;;;;;;;101092;1344;61725;-29
2021/12/01 02:06:06;;;;;;;3.70;1.90;;;;;;;;;;101622;1322;61638;-29
2021/12/01 02:08:39;;;;;;;4.10;2.00;;;;;;;;;;101516;1326;61544;-36
2021/12/01 02:11:11;;;;;;;4.40;2.40;;;;;;;;;;101547;1322;61622;-32
2021/12/01 02:16:06;;;;;;;3.90;2.20;;;;;;;;;;98572;1364;596120;-27
2021/12/01 02:18:33;;;;;;;4.30;2.10;;;;;;;;;;101081;1332;61613;-29
2021/12/01 02:21:03;;;;;;;4.70;2.10;;;;;;;;;;101049;1332;61539;-29
2021/12/01 02:23:37;;;;;;;5.00;2.70;;;;;;;;;;101040;1344;61548;-28
2021/12/01 02:26:07;;;;;;;4.50;2.20;;;;;;;;;;101060;1332;61697;-28
2021/12/01 02:31:16;;;;;;;4.80;2.30;;;;;;;;;;98774;1363;595995;-30
2021/12/01 02:33:43;;;;;;;4.90;2.30;;;;;;;;;;101321;1330;61660;-28
2021/12/01 02:36:14;;;;;;;4.60;2.40;;;;;;;;;;101273;1334;61662;-28
2021/12/01 02:38:42;;;;;;;4.70;2.20;;;;;;;;;;101294;1323;63228;-29
2021/12/01 02:41:12;;;;;;;4.30;2.20;;;;;;;;;;101257;1330;61648;-29
2021/12/01 02:43:40;;;;;;;4.70;2.40;;;;;;;;;;101244;1337;61514;-26
2021/12/01 02:46:32;;;;;;;4.40;2.40;;;;;;;;;;99255;1352;597183;-26
2021/12/01 02:48:58;;;;;;;4.90;2.50;;;;;;;;;;101041;1332;61541;-30
2021/12/01 02:51:31;;;;;;;4.40;2.30;;;;;;;;;;101054;1340;61647;-30
2021/12/01 02:53:58;;;;;;;4.30;2.20;;;;;;;;;;101067;1339;61612;-29
2021/12/01 02:56:30;;;;;;;4.70;2.50;;;;;;;;;;101068;1332;61528;-30
2021/12/01 03:01:41;;;;;;;4.40;2.10;;;;;;;;;;98927;1351;597078;-29
2021/12/01 03:04:08;;;;;;;4.70;2.50;;;;;;;;;;101188;1329;61574;-28
2021/12/01 03:06:36;;;;;;;4.80;2.80;;;;;;;;;;101204;1329;61820;-26
2021/12/01 03:09:07;;;;;;;4.50;2.60;;;;;;;;;;101048;1330;61788;-27
2021/12/01 03:11:35;;;;;;;4.30;2.20;;;;;;;;;;101218;1331;62828;-26
2021/12/01 03:14:06;;;;;;;4.10;2.20;;;;;;;;;;101287;1339;61791;-28
2021/12/01 03:16:55;;;;;;;4.60;2.30;;;;;;;;;;99293;1348;597233;-30
2021/12/01 03:19:22;;;;;;;4.30;2.30;;;;;;;;;;101167;1329;62166;-27
2021/12/01 03:21:51;;;;;;;4.60;2.40;;;;;;;;;;101158;1342;61534;-27
2021/12/01 03:24:18;;;;;;;4.70;2.30;;;;;;;;;;101171;1329;61748;-29
2021/12/01 03:26:48;;;;;;;5.20;2.40;;;;;;;;;;101180;1339;62772;-31
2021/12/01 03:29:18;;;;;;;4.30;2.20;;;;;;;;;;101138;1333;61732;-29
2021/12/01 03:32:07;;;;;;;4.30;2.30;;;;;;;;;;99175;1349;596024;-29
2021/12/01 03:34:35;;;;;;;4.30;2.40;;;;;;;;;;101180;1329;61586;-29
2021/12/01 03:37:02;;;;;;;4.50;2.30;;;;;;;;;;101106;1338;61589;-29
2021/12/01 03:39:32;;;;;;;4.50;2.30;;;;;;;;;;101178;1339;61533;-38
2021/12/01 03:41:59;;;;;;;3.60;2.10;;;;;;;;;;101155;1329;61791;-28
2021/12/01 03:44:27;;;;;;;4.40;2.30;;;;;;;;;;101045;1331;61709;-27
2021/12/01 03:47:24;;;;;;;4.50;2.20;;;;;;;;;;99239;1355;597403;-27
2021/12/01 03:49:51;;;;;;;4.10;2.00;;;;;;;;;;101137;1345;61570;-30
2021/12/01 03:52:23;;;;;;;4.70;2.40;;;;;;;;;;101345;1342;61633;-29
2021/12/01 03:54:51;;;;;;;4.40;2.20;;;;;;;;;;101346;1338;61590;-27
2021/12/01 03:57:21;;;;;;;4.60;2.20;;;;;;;;;;101318;1333;61528;-27
2021/12/01 04:02:33;;;;;;;4.60;2.20;;;;;;;;;;99347;1349;597085;-27
2021/12/01 04:05:00;;;;;;;4.50;2.30;;;;;;;;;;101270;1334;62348;-26
2021/12/01 04:07:29;;;;;;;4.60;2.30;;;;;;;;;;101439;1327;61665;-26
2021/12/01 04:09:59;;;;;;;4.40;2.10;;;;;;;;;;101373;1327;61588;-29
2021/12/01 04:12:27;;;;;;;5.10;2.50;;;;;;;;;;101405;1326;61627;-29
2021/12/01 04:14:53;;;;;;;4.70;2.30;;;;;;;;;;101417;1327;61669;-27
2021/12/01 04:17:46;;;;;;;3.90;2.30;;;;;;;;;;99126;1348;597097;-28
2021/12/01 04:20:15;;;;;;;4.10;2.10;;;;;;;;;;101069;1338;61517;-28
2021/12/01 04:22:49;;;;;;;4.50;2.40;;;;;;;;;;101098;1332;61731;-29
2021/12/01 04:25:20;;;;;;;4.30;2.40;;;;;;;;;;101110;1335;61617;-27
2021/12/01 04:27:50;;;;;;;4.60;2.30;;;;;;;;;;100984;1345;61668;-33
2021/12/01 04:32:59;;;;;;;4.60;2.50;;;;;;;;;;98605;1364;596804;-26
2021/12/01 04:35:27;;;;;;;4.90;2.40;;;;;;;;;;101052;1332;61721;-27
2021/12/01 04:37:55;;;;;;;4.60;2.40;;;;;;;;;;101068;1339;61539;-29
2021/12/01 04:40:23;;;;;;;4.50;2.40;;;;;;;;;;101089;1332;61538;-27
2021/12/01 04:42:50;;;;;;;4.00;2.10;;;;;;;;;;101024;1332;61596;-26
2021/12/01 04:45:19;;;;;;;4.10;2.30;;;;;;;;;;101046;1338;61649;-26
2021/12/01 04:48:11;;;;;;;4.20;2.20;;;;;;;;;;99302;1348;596085;-29
2021/12/01 04:50:38;;;;;;;4.90;2.20;;;;;;;;;;101037;1332;62442;-29
2021/12/01 04:53:08;;;;;;;4.40;2.30;;;;;;;;;;101063;1338;61510;-29
2021/12/01 04:55:35;;;;;;;4.80;2.20;;;;;;;;;;101064;1342;61635;-29
2021/12/01 04:58:05;;;;;;;4.90;2.20;;;;;;;;;;101090;1332;61551;-27
2021/12/01 05:00:34;;;;;;;5.00;2.60;;;;;;;;;;101054;1338;61538;-27
2021/12/01 05:03:29;;;;;;;4.70;2.40;;;;;;;;;;98892;1352;596025;-26
2021/12/01 05:05:56;;;;;;;5.10;2.60;;;;;;;;;;101270;1334;61547;-26
2021/12/01 05:08:26;;;;;;;4.20;2.10;;;;;;;;;;101261;1330;61594;-28
2021/12/01 05:10:53;;;;;;;4.20;2.00;;;;;;;;;;101192;1339;61657;-28
2021/12/01 05:13:21;;;;;;;4.50;2.30;;;;;;;;;;101235;1339;61616;-29
2021/12/01 05:15:48;;;;;;;4.30;2.40;;;;;;;;;;101224;1340;61723;-28
2021/12/01 05:18:37;;;;;;;4.90;2.50;;;;;;;;;;99317;1349;597051;-27
2021/12/01 05:21:04;;;;;;;4.80;2.40;;;;;;;;;;101151;1330;62481;-27
2021/12/01 05:23:31;;;;;;;4.40;2.20;;;;;;;;;;101152;1343;61635;-26
2021/12/01 05:26:01;;;;;;;4.40;2.10;;;;;;;;;;101154;1343;61688;-27
2021/12/01 05:28:28;;;;;;;4.90;2.40;;;;;;;;;;101153;1339;61596;-29
2021/12/01 05:30:58;;;;;;;4.50;2.20;;;;;;;;;;101147;1344;62096;-29
2021/12/01 05:33:53;;;;;;;4.60;2.40;;;;;;;;;;98573;1363;596788;-27
2021/12/01 05:36:23;;;;;;;4.40;2.40;;;;;;;;;;101085;1339;61595;-26
2021/12/01 05:38:50;;;;;;;4.20;2.30;;;;;;;;;;100963;1332;61610;-28
2021/12/01 05:41:20;;;;;;;3.80;2.30;;;;;;;;;;100985;1334;61626;-29
2021/12/01 05:43:50;;;;;;;4.50;2.30;;;;;;;;;;100975;1332;61627;-30
2021/12/01 05:46:20;;;;;;;4.80;2.50;;;;;;;;;;100984;1332;61562;-30
2021/12/01 05:49:11;;;;;;;4.50;2.40;;;;;;;;;;98552;1354;596761;-27
2021/12/01 05:51:37;;;;;;;4.60;2.50;;;;;;;;;;101037;1332;61692;-27
2021/12/01 05:54:04;;;;;;;4.20;2.40;;;;;;;;;;101049;1338;61648;-29
2021/12/01 05:56:34;;;;;;;5.10;2.50;;;;;;;;;;101053;1339;61634;-29
2021/12/01 05:59:01;;;;;;;4.70;2.40;;;;;;;;;;101073;1332;61527;-27
2021/12/01 06:01:31;;;;;;;4.40;2.30;;;;;;;;;;101052;1332;61610;-26
2021/12/01 06:04:24;;;;;;;4.50;2.40;;;;;;;;;;99396;1349;596172;-30
2021/12/01 06:06:51;;;;;;;4.50;2.50;;;;;;;;;;101626;1335;61678;-29
2021/12/01 06:09:21;;;;;;;4.80;2.10;;;;;;;;;;101605;1334;61508;-29
2021/12/01 06:11:51;;;;;;;4.40;2.60;;;;;;;;;;101598;1338;61530;-29
2021/12/01 06:14:21;;;;;;;4.00;2.10;;;;;;;;;;101599;1332;61600;-27
2021/12/01 06:19:34;;;;;;;3.70;2.20;;;;;;;;;;99358;1348;597017;-27
2021/12/01 06:22:02;;;;;;;4.70;2.10;;;;;;;;;;101188;1329;61501;-26
2021/12/01 06:24:30;;;;;;;4.50;2.40;;;;;;;;;;101014;1332;61771;-29
2021/12/01 06:26:58;;;;;;;4.50;2.50;;;;;;;;;;101025;1332;61728;-26
2021/12/01 06:29:27;;;;;;;4.60;2.30;;;;;;;;;;101084;1333;61513;-27
2021/12/01 06:31:54;;;;;;;4.40;2.50;;;;;;;;;;101175;1329;61606;-28
2021/12/01 06:34:46;;;;;;;4.90;2.60;;;;;;;;;;99329;1349;596385;-27
2021/12/01 06:37:18;;;;;;;5.00;2.40;;;;;;;;;;101266;1330;62400;-27
2021/12/01 06:39:46;;;;;;;4.30;2.10;;;;;;;;;;101244;1330;61691;-27
2021/12/01 06:42:15;;;;;;;4.10;2.40;;;;;;;;;;101272;1337;61619;-26
2021/12/01 06:44:45;;;;;;;4.30;2.50;;;;;;;;;;101172;1330;61634;-27
2021/12/01 06:47:17;;;;;;;4.80;2.70;;;;;;;;;;101206;1340;61646;-27
2021/12/01 06:50:05;;;;;;;4.70;2.50;;;;;;;;;;98597;1359;596592;-27
2021/12/01 06:52:36;;;;;;;4.30;2.50;;;;;;;;;;101110;1345;61617;-26
2021/12/01 06:55:07;;;;;;;5.50;2.60;;;;;;;;;;101162;1343;61612;-27
2021/12/01 06:57:37;;;;;;;4.80;2.70;;;;;;;;;;101156;1343;61642;-27
2021/12/01 07:00:10;;;;;;;4.80;2.30;;;;;;;;;;101146;1344;61644;-27
2021/12/01 07:05:18;;;;;;;4.30;2.30;;;;;;;;;;98626;1355;595976;-27
2021/12/01 07:07:48;;;;;;;7.40;2.50;;;;;;;;;;101257;1330;62199;-28
2021/12/01 07:10:15;;;;;;;5.10;2.60;;;;;;;;;;101216;1330;61533;-27
2021/12/01 07:12:51;;;;;;;4.50;2.50;;;;;;;;;;101219;1340;61629;-27
2021/12/01 07:15:21;;;;;;;4.90;3.10;;;;;;;;;;101231;1328;61726;-27
2021/12/01 07:20:30;;;;;;;5.40;3.10;;;;;;;;;;98565;1358;596400;-27
2021/12/01 07:22:58;;;;;;;5.60;2.70;;;;;;;;;;101105;1332;61671;-26
2021/12/01 07:25:25;;;;;;;7.50;3.80;;;;;;;;;;101104;1332;61520;-28
2021/12/01 07:27:52;;;;;;;5.70;3.50;;;;;;;;;;101097;1331;61656;-27
2021/12/01 07:30:19;;;;;;;5.40;3.70;;;;;;;;;;100977;1332;61569;-27
2021/12/01 07:32:46;;;;;;;6.00;3.80;;;;;;;;;;100998;1332;61737;-28
2021/12/01 07:35:43;;;;;;;6.30;3.60;;;;;;;;;;98590;1365;597150;-27
2021/12/01 07:38:12;;;;;;;7.20;4.00;;;;;;;;;;101178;1329;61652;-28
2021/12/01 07:40:39;;;;;;;6.00;3.90;;;;;;;;;;101550;1329;61531;-28
2021/12/01 07:43:06;;;;;;;6.50;3.60;;;;;;;;;;101564;1323;61486;-29
2021/12/01 07:45:33;;;;;;;7.20;4.30;;;;;;;;;;101588;1326;61544;-28
2021/12/01 07:48:00;;;;;;;7.90;4.20;;;;;;;;;;101556;1323;61653;-26
2021/12/01 07:50:56;;;;;;;7.00;4.50;;;;;;;;;;98592;1355;596319;-27
2021/12/01 07:53:23;;;;;;;8.70;4.00;;;;;;;;;;101079;1343;61653;-27
2021/12/01 07:56:32;;;;;;;8.10;4.40;;;;;;;;;;99351;1356;596573;-32
2021/12/01 07:58:59;;;;;;;6.60;4.30;;;;;;;;;;101185;1339;61596;-27
2021/12/01 08:01:26;;;;;;;6.40;4.00;;;;;;;;;;101173;1330;61637;-27
2021/12/01 08:03:53;;;;;;;6.50;3.70;;;;;;;;;;101210;1331;61623;-30
2021/12/01 08:06:20;;;;;;;5.40;3.50;;;;;;;;;;101163;1329;61503;-30
2021/12/01 08:08:47;;;;;;;6.60;3.70;;;;;;;;;;101203;1329;61619;-29
2021/12/01 08:11:16;;;;;;;6.20;3.70;;;;;;;;;;101197;1328;61664;-39
2021/12/01 08:13:43;;;;;;;7.60;3.60;;;;;;;;;;101296;1329;60337;-29
2021/12/01 08:16:11;;;;;;;5.60;3.20;;;;;;;;;;101266;1332;61549;-30
2021/12/01 08:18:38;;;;;;;5.90;3.40;;;;;;;;;;101306;1329;61548;-29
2021/12/01 08:21:05;;;;;;;5.20;3.40;;;;;;;;;;101174;1329;62490;-31
2021/12/01 08:23:32;;;;;;;5.20;3.50;;;;;;;;;;101308;1328;62357;-31
2021/12/01 08:25:58;;;;;;;5.40;3.40;;;;;;;;;;101264;1329;62273;-30
2021/12/01 08:28:25;;;;;;;5.10;3.40;;;;;;;;;;101266;1333;62327;-30
2021/12/01 08:30:52;;;;;;;5.20;3.40;;;;;;;;;;101241;1329;62390;-30
2021/12/01 08:33:20;;;;;;;6.80;3.60;;;;;;;;;;101231;1333;63482;-33
2021/12/01 08:35:47;;;;;;;5.70;3.80;;;;;;;;;;101239;1329;62750;-31
2021/12/01 08:38:14;;;;;;;5.90;3.40;;;;;;;;;;101272;1329;62475;-29
2021/12/01 08:40:42;;;;;;;6.00;3.40;;;;;;;;;;101247;1329;62495;-26
2021/12/01 08:43:10;;;;;;;6.00;3.60;;;;;;;;;;101263;1329;62484;-28
2021/12/01 08:45:38;;;;;;;5.80;3.50;;;;;;;;;;101239;1329;62308;-27
2021/12/01 08:48:05;;;;;;;7.20;5.00;;;;;;;;;;101614;1331;62473;-30
2021/12/01 08:50:33;;;;;;;8.40;4.70;;;;;;;;;;101530;1325;62437;-35
2021/12/01 08:53:00;;;;;;;8.90;6.20;;;;;;;;;;101654;1322;62443;-27
2021/12/01 08:55:27;;;;;;;7.50;5.10;;;;;;;;;;101542;1329;62362;-30
2021/12/01 08:57:54;;;;;;;8.50;6.20;;;;;;;;;;101538;1322;62302;-28
2021/12/01 09:00:21;;;;;;;10.60;6.20;;;;;;;;;;101542;1329;62537;-28
2021/12/01 09:02:48;;;;;;;6.10;3.70;;;;;;;;;;101570;1321;62446;-31
2021/12/01 09:05:15;;;;;;;6.20;3.90;;;;;;;;;;101531;1322;62392;-30
2021/12/01 09:07:46;;;;;;;6.60;3.80;;;;;;;;;;101555;1323;62495;-28
2021/12/01 09:10:13;;;;;;;5.60;3.70;;;;;;;;;;101568;1323;62430;-27
2021/12/01 09:12:41;;;;;;;6.40;4.50;;;;;;;;;;101529;1324;63132;-27
2021/12/01 09:15:13;;;;;;;5.40;3.30;;;;;;;;;;101581;1321;62452;-26
2021/12/01 09:17:40;;;;;;;6.70;4.00;;;;;;;;;;101585;1322;62406;-27
2021/12/01 09:20:08;;;;;;;6.20;3.80;;;;;;;;;;101599;1322;62314;-28
2021/12/01 09:22:35;;;;;;;7.40;3.80;;;;;;;;;;101665;1321;62443;-27
2021/12/01 09:25:03;;;;;;;6.40;4.20;;;;;;;;;;101646;1320;62355;-26
2021/12/01 09:27:30;;;;;;;6.40;3.80;;;;;;;;;;101580;1331;62529;-27
2021/12/01 09:29:57;;;;;;;6.20;3.90;;;;;;;;;;101560;1322;62560;-28
2021/12/01 09:32:24;;;;;;;6.80;3.60;;;;;;;;;;101570;1321;62588;-30
2021/12/01 09:34:52;;;;;;;6.20;4.10;;;;;;;;;;101571;1322;62346;-29
2021/12/01 09:37:19;;;;;;;6.20;3.90;;;;;;;;;;101532;1332;62367;-28
2021/12/01 09:39:46;;;;;;;6.00;3.60;;;;;;;;;;101575;1321;62320;-30
2021/12/01 09:42:13;;;;;;;6.20;3.90;;;;;;;;;;101526;1323;62459;-30
2021/12/01 09:44:40;;;;;;;6.20;3.50;;;;;;;;;;101521;1323;62379;-29
2021/12/01 09:47:07;;;;;;;6.30;3.90;;;;;;;;;;101557;1321;62452;-28
2021/12/01 09:49:34;;;;;;;5.90;3.70;;;;;;;;;;101581;1336;62402;-29
2021/12/01 09:52:01;;;;;;;5.90;3.60;;;;;;;;;;101564;1326;62434;-28
2021/12/01 09:54:28;;;;;;;6.10;3.90;;;;;;;;;;101588;1322;62362;-27
2021/12/01 09:56:55;;;;;;;5.70;3.50;;;;;;;;;;101540;1323;62357;-27
2021/12/01 09:59:22;;;;;;;5.50;3.40;;;;;;;;;;101601;1323;62566;-29
2021/12/01 10:01:49;;;;;;;5.20;3.60;;;;;;;;;;101540;1322;62482;-30
2021/12/01 10:04:19;;;;;;;6.30;3.90;;;;;;;;;;101606;1323;62337;-30
2021/12/01 10:06:46;;;;;;;6.70;3.80;;;;;;;;;;101531;1328;62316;-29
2021/12/01 10:09:14;;;;;;;6.50;3.80;;;;;;;;;;101617;1322;62454;-28
2021/12/01 10:11:42;;;;;;;5.30;4.00;;;;;;;;;;101656;1322;62475;-27
2021/12/01 10:14:18;;;;;;;5.90;3.80;;;;;;;;;;101660;1321;62929;-29
2021/12/01 10:16:45;;;;;;;5.70;3.40;;;;;;;;;;101588;1323;62547;-28
2021/12/01 10:19:13;;;;;;;5.10;3.20;;;;;;;;;;101624;1323;62571;-28
2021/12/01 10:21:47;;;;;;;6.30;3.60;;;;;;;;;;101582;1321;62550;-27
2021/12/01 10:24:18;;;;;;;5.70;3.80;;;;;;;;;;101567;1331;62405;-27
2021/12/01 10:26:48;;;;;;;7.00;4.10;;;;;;;;;;101634;1319;62366;-28
2021/12/01 10:29:17;;;;;;;5.70;3.40;;;;;;;;;;101478;1325;62820;-27
2021/12/01 10:31:45;;;;;;;5.80;3.60;;;;;;;;;;101571;1322;62438;-27
2021/12/01 10:34:12;;;;;;;6.20;3.60;;;;;;;;;;101561;1326;62466;-28
2021/12/01 10:36:39;;;;;;;6.30;3.80;;;;;;;;;;101563;1322;62459;-28
2021/12/01 10:39:06;;;;;;;6.60;3.80;;;;;;;;;;101456;1325;62622;-30
2021/12/01 10:41:36;;;;;;;7.20;4.00;;;;;;;;;;101567;1322;62450;-30
2021/12/01 10:44:11;;;;;;;6.00;3.60;;;;;;;;;;101520;1322;62469;-28
2021/12/01 10:46:44;;;;;;;5.90;3.80;;;;;;;;;;101544;1323;62502;-28
2021/12/01 10:49:10;;;;;;;6.60;3.80;;;;;;;;;;101579;1326;62361;-28
2021/12/01 10:51:38;;;;;;;6.20;3.50;;;;;;;;;;101584;1329;62461;-29
2021/12/01 10:54:17;;;;;;;6.40;3.80;;;;;;;;;;101585;1335;62460;-31
2021/12/01 10:56:45;;;;;;;6.00;3.90;;;;;;;;;;101550;1322;62488;-30
2021/12/01 10:59:13;;;;;;;5.80;3.60;;;;;;;;;;101601;1337;62446;-28
2021/12/01 11:01:40;;;;;;;5.80;3.60;;;;;;;;;;101481;1325;62575;-27
2021/12/01 11:04:07;;;;;;;5.90;4.10;;;;;;;;;;101442;1325;62446;-28
2021/12/01 11:06:39;;;;;;;6.20;4.10;;;;;;;;;;101525;1329;62585;-28
2021/12/01 11:09:07;;;;;;;6.60;3.80;;;;;;;;;;101557;1331;62463;-27
2021/12/01 11:11:43;;;;;;;5.60;3.70;;;;;;;;;;101570;1322;62450;-27
2021/12/01 11:14:14;;;;;;;7.70;3.80;;;;;;;;;;101579;1336;62336;-27
2021/12/01 11:16:42;;;;;;;5.90;3.70;;;;;;;;;;101457;1325;62469;-28
2021/12/01 11:19:10;;;;;;;6.40;3.40;;;;;;;;;;101564;1329;62441;-30
2021/12/01 11:21:38;;;;;;;5.70;3.80;;;;;;;;;;101471;1329;62331;-30
2021/12/01 11:24:07;;;;;;;6.30;4.00;;;;;;;;;;101548;1329;63052;-28
2021/12/01 11:26:35;;;;;;;6.20;3.40;;;;;;;;;;101664;1322;62412;-28
2021/12/01 11:29:06;;;;;;;6.40;3.50;;;;;;;;;;101559;1329;62548;-28
2021/12/01 11:31:38;;;;;;;6.70;3.90;;;;;;;;;;101552;1336;62449;-27
2021/12/01 11:34:07;;;;;;;5.40;3.50;;;;;;;;;;101605;1322;62342;-27
2021/12/01 11:36:35;;;;;;;5.80;3.70;;;;;;;;;;101540;1323;62636;-29
2021/12/01 11:39:05;;;;;;;5.30;3.40;;;;;;;;;;101605;1335;62448;-29
2021/12/01 11:41:36;;;;;;;6.80;3.40;;;;;;;;;;101575;1322;62470;-27
2021/12/01 11:44:04;;;;;;;7.00;3.70;;;;;;;;;;101437;1332;62958;-28
2021/12/01 11:46:33;;;;;;;5.10;3.10;;;;;;;;;;101568;1322;63097;-29
2021/12/01 11:49:04;;;;;;;9.60;3.50;;;;;;;;;;101544;1322;62474;-30
2021/12/01 11:51:31;;;;;;;5.60;3.20;;;;;;;;;;101635;1322;62446;-32
2021/12/01 11:54:05;;;;;;;6.60;3.70;;;;;;;;;;101622;1323;62548;-31
2021/12/01 11:56:34;;;;;;;5.60;3.50;;;;;;;;;;101493;1322;62435;-30
2021/12/01 11:59:27;;;;;;;5.30;3.30;;;;;;;;;;101549;1323;62540;-28
2021/12/01 12:01:55;;;;;;;6.90;3.60;;;;;;;;;;101403;1331;62366;-30
2021/12/01 12:04:24;;;;;;;5.30;3.60;;;;;;;;;;101504;1326;63279;-29
2021/12/01 12:07:11;;;;;;;6.00;3.30;;;;;;;;;;101489;1331;63260;-29
2021/12/01 12:09:38;;;;;;;6.00;3.50;;;;;;;;;;101519;1323;63260;-30
2021/12/01 12:12:13;;;;;;;5.60;3.40;;;;;;;;;;101495;1322;63264;-29
2021/12/01 12:14:46;;;;;;;6.40;3.30;;;;;;;;;;101470;1322;63138;-30
2021/12/01 12:17:20;;;;;;;5.10;3.20;;;;;;;;;;101495;1336;63362;-29
2021/12/01 12:19:52;;;;;;;6.00;3.30;;;;;;;;;;101555;1337;63232;-30
2021/12/01 12:22:24;;;;;;;5.20;3.30;;;;;;;;;;101522;1322;63287;-28
2021/12/01 12:24:53;;;;;;;6.40;3.60;;;;;;;;;;101511;1326;63263;-29
2021/12/01 12:27:38;;;;;;;5.70;3.50;;;;;;;;;;101491;1337;63273;-30
2021/12/01 12:30:08;;;;;;;5.80;3.60;;;;;;;;;;101454;1322;63189;-29
2021/12/01 12:32:39;;;;;;;5.30;3.50;;;;;;;;;;101535;1322;63400;-28
2021/12/01 12:35:08;;;;;;;5.00;3.20;;;;;;;;;;101386;1335;63256;-30
2021/12/01 12:37:36;;;;;;;5.50;3.20;;;;;;;;;;101456;1337;63342;-29
2021/12/01 12:40:06;;;;;;;5.50;3.50;;;;;;;;;;101456;1325;63501;-30
2021/12/01 12:42:33;;;;;;;4.90;3.00;;;;;;;;;;101477;1322;63292;-30
2021/12/01 12:45:00;;;;;;;5.20;3.10;;;;;;;;;;101519;1336;63182;-30
2021/12/01 12:47:30;;;;;;;5.60;3.50;;;;;;;;;;101411;1325;63387;-29
2021/12/01 12:50:09;;;;;;;6.20;3.70;;;;;;;;;;101604;1323;63274;-28
2021/12/01 12:52:37;;;;;;;5.40;3.70;;;;;;;;;;101516;1322;63266;-29
2021/12/01 12:55:31;;;;;;;5.50;3.30;;;;;;;;;;101472;1337;63309;-28
2021/12/01 12:58:02;;;;;;;7.50;3.70;;;;;;;;;;101518;1336;63928;-27
2021/12/01 13:00:31;;;;;;;5.70;3.20;;;;;;;;;;101515;1337;63249;-25
2021/12/01 13:02:59;;;;;;;5.30;3.00;;;;;;;;;;101670;1332;63165;-26
2021/12/01 13:05:32;;;;;;;4.90;3.00;;;;;;;;;;101669;1326;63275;-26
2021/12/01 13:07:59;;;;;;;5.00;3.10;;;;;;;;;;101659;1320;63883;-26
2021/12/01 13:10:26;;;;;;;5.00;3.00;;;;;;;;;;101535;1337;63262;-29
2021/12/01 13:12:55;;;;;;;5.80;3.10;;;;;;;;;;101574;1337;63307;-29
2021/12/01 13:15:24;;;;;;;5.40;3.50;;;;;;;;;;101570;1324;63230;-28
2021/12/01 13:17:56;;;;;;;5.70;3.10;;;;;;;;;;101632;1325;63393;-27
2021/12/01 13:20:25;;;;;;;5.80;3.30;;;;;;;;;;101532;1322;63274;-27
2021/12/01 13:23:19;;;;;;;5.20;3.20;;;;;;;;;;101472;1331;63266;-28
2021/12/01 13:26:04;;;;;;;5.10;3.30;;;;;;;;;;101381;1325;63340;-27
2021/12/01 13:28:34;;;;;;;5.10;3.00;;;;;;;;;;101561;1329;63270;-26
2021/12/01 13:31:10;;;;;;;9.40;3.50;;;;;;;;;;101446;1337;63267;-27
2021/12/01 13:33:53;;;;;;;5.50;3.50;;;;;;;;;;101588;1323;63227;-28
2021/12/01 13:36:21;;;;;;;5.60;3.60;;;;;;;;;;101431;1335;63145;-29
2021/12/01 13:39:05;;;;;;;7.70;3.40;;;;;;;;;;101502;1323;63330;-28
2021/12/01 13:41:43;;;;;;;5.30;3.20;;;;;;;;;;101587;1326;63383;-28
2021/12/01 13:44:15;;;;;;;6.20;4.00;;;;;;;;;;101454;1335;63227;-28
2021/12/01 13:46:43;;;;;;;5.10;3.30;;;;;;;;;;101542;1337;63212;-28
2021/12/01 13:49:11;;;;;;;8.00;3.40;;;;;;;;;;101452;1331;63190;-27
2021/12/01 13:51:40;;;;;;;5.50;3.50;;;;;;;;;;101582;1326;63278;-27
2021/12/01 13:54:25;;;;;;;5.30;3.30;;;;;;;;;;101562;1326;63267;-29
2021/12/01 13:57:01;;;;;;;5.90;3.90;;;;;;;;;;101477;1333;63246;-28
2021/12/01 13:59:46;;;;;;;5.70;3.40;;;;;;;;;;101570;1321;63407;-27
2021/12/01 14:02:24;;;;;;;5.80;3.40;;;;;;;;;;101580;1323;63391;-27
2021/12/01 14:04:51;;;;;;;5.80;3.60;;;;;;;;;;101533;1323;63154;-28
2021/12/01 14:07:19;;;;;;;6.00;3.30;;;;;;;;;;101513;1324;63199;-28
2021/12/01 14:10:06;;;;;;;6.00;3.40;;;;;;;;;;101558;1336;63228;-27
2021/12/01 14:12:36;;;;;;;5.40;3.40;;;;;;;;;;101577;1333;63320;-27
2021/12/01 14:15:03;;;;;;;5.10;3.10;;;;;;;;;;101570;1326;63152;-28
2021/12/01 14:17:30;;;;;;;5.60;3.00;;;;;;;;;;101594;1321;63146;-32
2021/12/01 14:19:58;;;;;;;5.80;3.20;;;;;;;;;;101552;1335;63392;-29
2021/12/01 14:22:25;;;;;;;5.10;2.90;;;;;;;;;;101487;1322;63356;-28
2021/12/01 14:24:56;;;;;;;5.90;3.00;;;;;;;;;;101584;1337;63815;-28
2021/12/01 14:27:29;;;;;;;5.00;2.80;;;;;;;;;;101582;1320;63256;-28
2021/12/01 14:30:03;;;;;;;4.50;2.90;;;;;;;;;;101570;1321;63416;-28
2021/12/01 14:32:30;;;;;;;5.50;3.50;;;;;;;;;;101532;1324;63301;-27
2021/12/01 14:35:02;;;;;;;5.60;3.10;;;;;;;;;;101588;1330;64502;-27
2021/12/01 14:37:33;;;;;;;5.20;3.20;;;;;;;;;;101546;1331;63310;-27
2021/12/01 14:40:04;;;;;;;5.30;2.90;;;;;;;;;;101556;1331;63256;-27
2021/12/01 14:42:31;;;;;;;4.70;2.80;;;;;;;;;;101569;1336;63215;-27
2021/12/01 14:45:05;;;;;;;5.70;3.20;;;;;;;;;;101576;1336;63275;-26
2021/12/01 14:47:33;;;;;;;5.00;3.00;;;;;;;;;;101582;1326;63201;-26
2021/12/01 14:50:01;;;;;;;5.90;3.20;;;;;;;;;;101527;1336;63279;-28
2021/12/01 14:52:36;;;;;;;4.60;2.50;;;;;;;;;;101565;1336;63281;-28
2021/12/01 14:55:07;;;;;;;5.40;3.20;;;;;;;;;;101562;1336;63269;-43
2021/12/01 14:57:37;;;;;;;5.50;3.40;;;;;;;;;;101543;1335;63292;-28
2021/12/01 15:00:06;;;;;;;5.60;3.00;;;;;;;;;;101563;1324;63261;-28
2021/12/01 15:02:37;;;;;;;5.30;3.30;;;;;;;;;;101570;1321;63253;-28
2021/12/01 15:05:04;;;;;;;5.00;3.20;;;;;;;;;;101584;1336;63166;-29
2021/12/01 15:07:43;;;;;;;5.40;2.90;;;;;;;;;;101566;1325;63254;-29
2021/12/01 15:10:13;;;;;;;4.40;2.70;;;;;;;;;;101569;1336;63295;-27
2021/12/01 15:12:41;;;;;;;5.60;2.90;;;;;;;;;;101551;1335;63317;-28
2021/12/01 15:15:28;;;;;;;5.10;3.00;;;;;;;;;;101566;1321;63315;-28
2021/12/01 15:18:05;;;;;;;5.40;2.90;;;;;;;;;;101589;1322;63279;-29
2021/12/01 15:20:32;;;;;;;6.00;3.10;;;;;;;;;;101538;1325;63295;-27
2021/12/01 15:23:07;;;;;;;5.50;3.30;;;;;;;;;;101548;1326;63173;-28
2021/12/01 15:25:37;;;;;;;5.30;3.20;;;;;;;;;;101595;1336;63293;-27
2021/12/01 15:28:09;;;;;;;5.40;3.40;;;;;;;;;;101583;1321;63359;-27
2021/12/01 15:30:38;;;;;;;5.80;2.70;;;;;;;;;;101550;1336;63265;-28
2021/12/01 15:33:06;;;;;;;5.20;3.00;;;;;;;;;;101583;1322;63451;-27